Time;durP1;ratioP1;P1;durP2;ratioP2;P2;SDS_P1;SDS_P2;PMS_P1;PMS_P2;Temp;Humidity;BMP_temperature;BMP_pressure;BME280_temperature;BME280_humidity;BME280_pressure;Samples;Min_cycle;Max_cycle;Signal;HPM_P1;HPM_P2
2022/05/07 00:02:06;;;;;;;11.05;10.15;;;10.50;99.90;;;;;;4880135;29;20218;-83
2022/05/07 00:04:35;;;;;;;10.17;9.17;;;10.50;99.90;;;;;;4898590;29;20206;-81
2022/05/07 00:07:02;;;;;;;9.88;9.05;;;10.30;99.90;;;;;;4899965;29;20470;-83
2022/05/07 00:09:29;;;;;;;11.27;10.18;;;10.20;99.90;;;;;;4883576;29;20226;-83
2022/05/07 00:11:56;;;;;;;12.05;10.85;;;10.20;99.90;;;;;;4881097;29;20217;-83
2022/05/07 00:14:23;;;;;;;11.97;10.20;;;10.20;99.90;;;;;;4894348;29;20613;-82
2022/05/07 00:19:35;;;;;;;10.95;9.80;;;10.20;99.90;;;;;;4894194;29;20328;-83
2022/05/07 00:22:03;;;;;;;10.65;9.73;;;10.20;99.90;;;;;;4879973;29;20698;-83
2022/05/07 00:24:30;;;;;;;10.93;9.93;;;10.20;99.90;;;;;;4895527;29;20580;-83
2022/05/07 00:26:57;;;;;;;10.25;9.35;;;10.20;99.90;;;;;;4898674;29;20212;-82
2022/05/07 00:29:23;;;;;;;9.47;8.37;;;10.20;99.90;;;;;;4883435;29;20201;-83
2022/05/07 00:31:50;;;;;;;9.27;8.52;;;10.20;99.90;;;;;;4898863;29;20441;-83
2022/05/07 00:34:17;;;;;;;9.05;8.15;;;10.10;99.90;;;;;;4885205;29;20210;-83
2022/05/07 00:36:45;;;;;;;10.48;8.95;;;10.10;99.90;;;;;;4880194;29;20221;-83
2022/05/07 00:39:12;;;;;;;10.98;8.82;;;10.10;99.90;;;;;;4893477;29;20217;-83
2022/05/07 00:41:40;;;;;;;9.57;8.65;;;10.10;99.90;;;;;;4898230;29;20213;-83
2022/05/07 00:44:07;;;;;;;9.53;8.70;;;9.90;99.90;;;;;;4888403;29;20259;-83
2022/05/07 00:46:34;;;;;;;8.73;7.82;;;9.90;99.90;;;;;;4880426;29;20458;-83
2022/05/07 00:49:01;;;;;;;10.48;7.72;;;9.90;99.90;;;;;;4880619;29;20580;-83
2022/05/07 00:51:33;;;;;;;9.88;8.13;;;9.90;99.90;;;;;;4895092;29;20770;-84
2022/05/07 00:54:02;;;;;;;10.15;9.23;;;9.90;99.90;;;;;;4898972;29;20294;-83
2022/05/07 00:56:30;;;;;;;8.67;7.97;;;9.90;99.90;;;;;;4893221;29;20228;-84
2022/05/07 00:58:57;;;;;;;7.93;7.22;;;9.90;99.90;;;;;;4880332;29;20835;-85
2022/05/07 01:01:24;;;;;;;9.23;8.35;;;9.90;99.90;;;;;;4880237;29;20239;-83
2022/05/07 01:03:51;;;;;;;10.10;8.63;;;9.80;99.90;;;;;;4880353;29;20223;-83
2022/05/07 01:06:18;;;;;;;8.98;8.18;;;9.80;99.90;;;;;;4895844;29;20214;-83
2022/05/07 01:08:46;;;;;;;8.05;7.30;;;9.70;99.90;;;;;;4899149;29;20675;-82
2022/05/07 01:11:15;;;;;;;9.77;8.88;;;9.70;99.90;;;;;;4898528;29;20280;-83
2022/05/07 01:13:44;;;;;;;9.07;8.17;;;9.70;99.90;;;;;;4898124;29;20724;-83
2022/05/07 01:16:11;;;;;;;8.77;7.88;;;9.60;99.90;;;;;;4883834;29;20824;-83
2022/05/07 01:18:39;;;;;;;8.25;7.45;;;9.60;99.90;;;;;;4884988;29;20594;-83
2022/05/07 01:21:12;;;;;;;9.30;8.40;;;9.60;99.90;;;;;;4898600;29;20611;-82
2022/05/07 01:23:40;;;;;;;9.70;8.70;;;9.50;99.90;;;;;;4899422;29;20204;-82
2022/05/07 01:26:07;;;;;;;7.75;7.05;;;9.60;99.90;;;;;;4899310;29;20212;-84
2022/05/07 01:28:34;;;;;;;8.15;7.40;;;9.60;99.90;;;;;;4900968;29;20205;-83
2022/05/07 01:31:00;;;;;;;8.10;7.40;;;9.60;99.90;;;;;;4889977;29;20235;-81
2022/05/07 01:33:27;;;;;;;9.53;8.33;;;9.60;99.90;;;;;;4894235;29;20224;-82
2022/05/07 01:35:54;;;;;;;9.10;8.20;;;9.50;99.90;;;;;;4901495;29;20472;-83
2022/05/07 01:38:22;;;;;;;12.40;11.20;;;9.50;99.90;;;;;;4898425;29;20303;-83
2022/05/07 01:40:49;;;;;;;8.32;7.47;;;9.50;99.90;;;;;;4883005;29;20287;-83
2022/05/07 01:43:16;;;;;;;8.57;7.85;;;9.40;99.90;;;;;;4879983;29;20220;-83
2022/05/07 01:45:42;;;;;;;9.63;8.73;;;9.30;99.90;;;;;;4880149;29;20208;-82
2022/05/07 01:48:11;;;;;;;13.02;9.65;;;9.30;99.90;;;;;;4898636;29;20216;-82
2022/05/07 01:50:39;;;;;;;8.10;7.32;;;9.30;99.90;;;;;;4884592;29;20223;-83
2022/05/07 01:53:07;;;;;;;8.55;7.75;;;9.30;99.90;;;;;;4879869;29;20220;-82
2022/05/07 01:55:36;;;;;;;9.98;9.18;;;9.30;99.90;;;;;;4880183;29;20239;-83
2022/05/07 01:58:03;;;;;;;8.30;7.60;;;9.20;99.90;;;;;;4879625;29;20307;-83
2022/05/07 02:00:30;;;;;;;11.63;8.57;;;9.30;99.90;;;;;;4897662;29;20232;-83
2022/05/07 02:02:58;;;;;;;7.85;7.22;;;9.30;99.90;;;;;;4898654;29;20271;-83
2022/05/07 02:05:25;;;;;;;11.32;7.68;;;9.30;99.90;;;;;;4880684;29;20702;-82
2022/05/07 02:07:53;;;;;;;9.68;8.43;;;9.20;99.90;;;;;;4880063;29;20632;-82
2022/05/07 02:10:20;;;;;;;8.50;7.65;;;9.30;99.90;;;;;;4878813;29;20228;-81
2022/05/07 02:12:49;;;;;;;8.85;8.13;;;9.20;99.90;;;;;;4890875;29;20208;-83
2022/05/07 02:15:16;;;;;;;9.27;8.48;;;9.20;99.90;;;;;;4898219;29;20219;-82
2022/05/07 02:17:42;;;;;;;9.38;8.15;;;9.00;99.90;;;;;;4888255;29;20699;-82
2022/05/07 02:20:10;;;;;;;9.00;8.07;;;9.10;99.90;;;;;;4880072;29;20240;-81
2022/05/07 02:22:37;;;;;;;8.93;8.02;;;9.00;99.90;;;;;;4880212;29;20222;-82
2022/05/07 02:25:05;;;;;;;9.40;8.50;;;8.90;99.90;;;;;;4881963;29;20216;-81
2022/05/07 02:27:32;;;;;;;11.77;10.77;;;8.80;99.90;;;;;;4883446;29;20220;-82
2022/05/07 02:30:00;;;;;;;8.52;7.75;;;8.90;99.90;;;;;;4883431;29;20228;-82
2022/05/07 02:32:26;;;;;;;10.50;8.23;;;8.90;99.90;;;;;;4896252;29;20208;-83
2022/05/07 02:34:53;;;;;;;9.20;8.32;;;8.90;99.90;;;;;;4897134;29;20207;-82
2022/05/07 02:37:20;;;;;;;12.70;8.63;;;8.90;99.90;;;;;;4902208;29;20228;-82
2022/05/07 02:39:48;;;;;;;9.35;7.82;;;8.90;99.90;;;;;;4902081;29;20751;-82
2022/05/07 02:45:01;;;;;;;9.90;8.98;;;8.60;99.90;;;;;;4901845;29;20187;-81
2022/05/07 02:47:28;;;;;;;10.65;9.00;;;8.40;99.90;;;;;;4901682;29;20745;-82
2022/05/07 02:49:55;;;;;;;8.77;7.97;;;8.50;99.90;;;;;;4893784;29;20747;-82
2022/05/07 02:52:22;;;;;;;11.00;8.65;;;8.40;99.90;;;;;;4882438;29;20212;-82
2022/05/07 02:54:49;;;;;;;10.88;9.70;;;8.40;99.90;;;;;;4882904;29;20549;-82
2022/05/07 02:57:15;;;;;;;10.05;9.05;;;8.40;99.90;;;;;;4882951;29;20216;-84
2022/05/07 02:59:42;;;;;;;9.77;8.32;;;8.50;99.90;;;;;;4882019;29;20769;-83
2022/05/07 03:02:11;;;;;;;9.70;8.90;;;8.60;99.90;;;;;;4881886;29;20296;-83
2022/05/07 03:04:38;;;;;;;9.27;8.40;;;8.60;99.90;;;;;;4882444;29;20216;-84
2022/05/07 03:07:05;;;;;;;9.25;8.32;;;8.70;99.90;;;;;;4891290;29;20200;-83
2022/05/07 03:09:31;;;;;;;11.23;8.27;;;8.60;99.90;;;;;;4900774;29;20235;-82
2022/05/07 03:11:58;;;;;;;9.40;8.32;;;8.60;99.90;;;;;;4900500;29;20223;-82
2022/05/07 03:14:25;;;;;;;9.93;8.85;;;8.50;99.90;;;;;;4901022;29;20215;-83
2022/05/07 03:16:52;;;;;;;10.40;9.32;;;8.30;99.90;;;;;;4893085;29;20207;-83
2022/05/07 03:19:20;;;;;;;10.40;8.77;;;8.30;99.90;;;;;;4893544;29;20226;-82
2022/05/07 03:21:47;;;;;;;10.23;9.23;;;8.30;99.90;;;;;;4894588;29;20207;-83
2022/05/07 03:24:14;;;;;;;10.18;9.00;;;8.30;99.90;;;;;;4882142;29;20216;-83
2022/05/07 03:26:41;;;;;;;10.02;9.00;;;8.30;99.90;;;;;;4881786;29;20212;-83
2022/05/07 03:29:08;;;;;;;11.13;9.23;;;8.40;99.90;;;;;;4884397;29;20224;-83
2022/05/07 03:31:34;;;;;;;9.75;8.60;;;8.50;99.90;;;;;;4900421;29;20215;-83
2022/05/07 03:34:01;;;;;;;9.25;8.20;;;8.50;99.90;;;;;;4900027;29;20219;-83
2022/05/07 03:36:30;;;;;;;9.80;8.80;;;8.50;99.90;;;;;;4895571;29;20210;-82
2022/05/07 03:38:56;;;;;;;9.50;8.68;;;8.50;99.90;;;;;;4881751;29;20218;-83
2022/05/07 03:41:23;;;;;;;8.85;8.05;;;8.60;99.90;;;;;;4880998;29;20239;-82
2022/05/07 03:43:50;;;;;;;10.32;9.27;;;8.60;99.90;;;;;;4881538;29;20219;-83
2022/05/07 03:46:17;;;;;;;10.40;9.00;;;8.60;99.90;;;;;;4881632;29;20219;-82
2022/05/07 03:48:43;;;;;;;9.45;8.57;;;8.60;99.90;;;;;;4881709;29;20679;-83
2022/05/07 03:51:10;;;;;;;9.68;8.82;;;8.60;99.90;;;;;;4899667;29;20231;-83
2022/05/07 03:53:37;;;;;;;8.90;8.07;;;8.60;99.90;;;;;;4900199;29;20222;-84
2022/05/07 03:56:06;;;;;;;10.63;9.52;;;8.60;99.90;;;;;;4883282;29;20531;-82
2022/05/07 03:58:33;;;;;;;11.00;9.77;;;8.60;99.90;;;;;;4881996;29;20268;-83
2022/05/07 04:01:00;;;;;;;9.27;8.30;;;8.50;99.90;;;;;;4896762;29;20237;-82
2022/05/07 04:03:27;;;;;;;11.25;9.95;;;8.50;99.90;;;;;;4899552;29;20230;-83
2022/05/07 04:05:54;;;;;;;10.15;9.13;;;8.50;99.90;;;;;;4899998;29;20623;-83
2022/05/07 04:08:23;;;;;;;9.10;8.25;;;8.50;99.90;;;;;;4899624;29;20254;-83
2022/05/07 04:10:51;;;;;;;12.93;11.13;;;8.40;99.90;;;;;;4899799;29;20233;-84
2022/05/07 04:13:18;;;;;;;9.45;8.55;;;8.40;99.90;;;;;;4899917;29;20213;-84
2022/05/07 04:15:45;;;;;;;9.98;9.07;;;8.50;99.90;;;;;;4899818;29;20211;-84
2022/05/07 04:18:12;;;;;;;10.57;8.35;;;8.50;99.90;;;;;;4899760;29;20204;-83
2022/05/07 04:20:39;;;;;;;8.90;8.10;;;8.50;99.90;;;;;;4899238;29;20697;-83
2022/05/07 04:23:06;;;;;;;9.00;8.20;;;8.50;99.90;;;;;;4899828;29;20215;-84
2022/05/07 04:25:33;;;;;;;8.90;8.02;;;8.50;99.90;;;;;;4886592;29;20219;-84
2022/05/07 04:28:49;;;;;;;9.60;8.45;;;8.60;99.90;;;;;;4881255;29;20226;-83
2022/05/07 04:31:18;;;;;;;9.55;8.65;;;8.60;99.90;;;;;;4870943;29;20788;-83
2022/05/07 04:33:45;;;;;;;8.07;7.43;;;8.60;99.90;;;;;;4895547;29;20219;-83
2022/05/07 04:36:12;;;;;;;8.18;7.47;;;8.60;99.90;;;;;;4899864;29;20218;-85
2022/05/07 04:38:39;;;;;;;10.35;7.80;;;8.60;99.90;;;;;;4899631;29;20211;-84
2022/05/07 04:41:07;;;;;;;10.45;9.45;;;8.60;99.90;;;;;;4898836;29;20880;-84
2022/05/07 04:43:34;;;;;;;7.57;6.85;;;8.70;99.90;;;;;;4881245;29;20232;-86
2022/05/07 04:46:00;;;;;;;8.63;7.60;;;8.70;99.90;;;;;;4880732;29;20219;-85
2022/05/07 04:48:29;;;;;;;8.82;8.13;;;8.80;99.90;;;;;;4880093;29;20222;-84
2022/05/07 04:50:56;;;;;;;8.35;7.53;;;8.80;99.90;;;;;;4880508;29;20232;-84
2022/05/07 04:53:22;;;;;;;9.05;8.15;;;8.80;99.90;;;;;;4897491;29;20207;-85
2022/05/07 04:55:50;;;;;;;10.35;9.38;;;8.80;99.90;;;;;;4892295;29;20204;-81
2022/05/07 04:58:17;;;;;;;9.30;8.55;;;8.90;99.90;;;;;;4881352;29;20213;-85
2022/05/07 05:00:44;;;;;;;11.85;10.02;;;8.90;99.90;;;;;;4880713;29;20238;-84
2022/05/07 05:03:13;;;;;;;9.68;8.77;;;8.90;99.90;;;;;;4880687;29;20225;-83
2022/05/07 05:05:41;;;;;;;8.38;7.68;;;9.00;99.90;;;;;;4880718;29;20216;-83
2022/05/07 05:08:08;;;;;;;9.68;8.88;;;9.00;99.90;;;;;;4880139;29;20212;-82
2022/05/07 05:11:07;;;;;;;11.07;9.55;;;9.10;99.90;;;;;;4880517;29;20226;-84
2022/05/07 05:13:33;;;;;;;11.25;10.35;;;9.10;99.90;;;;;;4881084;29;20259;-84
2022/05/07 05:16:00;;;;;;;16.90;12.75;;;9.20;99.90;;;;;;4880031;29;20701;-83
2022/05/07 05:18:27;;;;;;;18.08;15.05;;;9.30;99.90;;;;;;4885649;29;20294;-83
2022/05/07 05:20:55;;;;;;;17.63;15.73;;;9.40;99.90;;;;;;4884866;29;20235;-83
2022/05/07 05:23:22;;;;;;;20.45;18.40;;;9.40;99.90;;;;;;4892423;29;20209;-82
2022/05/07 05:25:49;;;;;;;20.70;18.50;;;9.50;99.90;;;;;;4889545;29;20213;-83
2022/05/07 05:28:16;;;;;;;21.77;19.67;;;9.60;99.90;;;;;;4879883;29;20216;-83
2022/05/07 05:30:44;;;;;;;22.48;19.65;;;9.70;99.90;;;;;;4879260;29;20228;-82
2022/05/07 05:33:10;;;;;;;21.23;19.30;;;9.80;99.90;;;;;;4879492;29;20253;-82
2022/05/07 05:35:38;;;;;;;23.23;19.08;;;9.90;99.90;;;;;;4879927;29;20772;-83
2022/05/07 05:38:06;;;;;;;22.23;20.23;;;10.00;99.90;;;;;;4879463;29;20219;-83
2022/05/07 05:40:33;;;;;;;25.42;20.13;;;10.10;99.90;;;;;;4878934;29;20228;-84
2022/05/07 05:43:00;;;;;;;22.90;20.50;;;10.20;99.90;;;;;;4884304;29;20574;-82
2022/05/07 05:45:27;;;;;;;22.83;20.57;;;10.30;99.90;;;;;;4880530;29;20499;-82
2022/05/07 05:47:54;;;;;;;22.17;19.77;;;10.30;99.90;;;;;;4884492;29;20454;-82
2022/05/07 05:50:22;;;;;;;24.23;21.83;;;10.40;99.90;;;;;;4892108;29;20235;-82
2022/05/07 05:52:48;;;;;;;22.97;19.83;;;10.60;99.90;;;;;;4885191;29;20469;-82
2022/05/07 05:55:17;;;;;;;27.23;23.07;;;10.60;99.90;;;;;;4893868;29;20461;-82
2022/05/07 05:57:44;;;;;;;22.37;20.23;;;10.70;99.90;;;;;;4885779;29;20472;-82
2022/05/07 06:00:12;;;;;;;19.07;17.17;;;10.80;99.90;;;;;;4890394;29;20495;-82
2022/05/07 06:02:39;;;;;;;29.90;18.87;;;10.90;99.90;;;;;;4885275;29;20944;-82
2022/05/07 06:05:06;;;;;;;20.40;17.27;;;11.00;99.90;;;;;;4885901;29;20461;-82
2022/05/07 06:07:33;;;;;;;19.90;18.03;;;11.10;99.90;;;;;;4884458;29;20457;-82
2022/05/07 06:10:00;;;;;;;19.50;15.33;;;11.20;99.90;;;;;;4883675;29;20475;-82
2022/05/07 06:12:28;;;;;;;21.47;19.17;;;11.30;99.90;;;;;;4893943;29;20470;-82
2022/05/07 06:14:55;;;;;;;16.57;15.07;;;11.40;99.90;;;;;;4902041;29;20470;-84
2022/05/07 06:17:21;;;;;;;15.43;13.87;;;11.50;99.90;;;;;;4901790;29;20882;-83
2022/05/07 06:19:48;;;;;;;14.27;12.97;;;11.60;99.90;;;;;;4898498;29;20489;-82
2022/05/07 06:22:15;;;;;;;15.50;14.10;;;11.70;99.90;;;;;;4883474;29;20949;-81
2022/05/07 06:27:34;;;;;;;14.87;13.53;;;11.80;99.90;;;;;;4902156;29;20786;-81
2022/05/07 06:30:05;;;;;;;18.70;14.60;;;11.90;99.90;;;;;;4899968;29;20596;-85
2022/05/07 06:32:33;;;;;;;15.77;14.20;;;12.00;99.90;;;;;;4886253;29;20474;-83
2022/05/07 06:35:00;;;;;;;16.63;15.00;;;12.10;99.90;;;;;;4889425;29;20465;-85
2022/05/07 06:37:48;;;;;;;17.20;14.27;;;12.20;99.90;;;;;;4887538;29;20452;-84
2022/05/07 06:53:57;;;;;;;15.80;14.20;;;12.90;99.90;;;;;;4865540;29;20456;-85
2022/05/07 06:56:26;;;;;;;17.27;14.00;;;13.00;99.90;;;;;;4887719;29;20491;-86
2022/05/07 06:59:00;;;;;;;14.40;13.00;;;13.00;99.90;;;;;;4888371;29;20471;-86
2022/05/07 07:01:26;;;;;;;15.00;13.60;;;13.10;99.90;;;;;;4886387;29;20517;-86
2022/05/07 07:03:59;;;;;;;17.00;14.17;;;13.20;99.90;;;;;;4889350;29;20993;-86
2022/05/07 07:06:27;;;;;;;17.20;13.80;;;13.30;99.90;;;;;;4886703;29;20456;-86
2022/05/07 07:08:56;;;;;;;15.83;13.00;;;13.20;99.90;;;;;;4887343;29;20464;-86
2022/05/07 07:11:24;;;;;;;15.00;13.60;;;13.30;99.90;;;;;;4883854;29;20483;-86
2022/05/07 07:13:52;;;;;;;12.50;11.40;;;13.50;99.90;;;;;;4884320;29;20468;-86
2022/05/07 07:16:21;;;;;;;14.33;13.03;;;13.60;99.90;;;;;;4884583;29;20563;-85
2022/05/07 07:18:48;;;;;;;14.40;12.90;;;13.70;99.90;;;;;;4885388;29;20993;-85
2022/05/07 07:21:16;;;;;;;14.57;13.23;;;13.80;99.90;;;;;;4884569;29;20984;-86
2022/05/07 07:23:42;;;;;;;12.90;11.70;;;13.90;99.90;;;;;;4884984;29;20511;-85
2022/05/07 07:26:11;;;;;;;13.60;12.20;;;14.10;99.90;;;;;;4901679;29;20459;-86
2022/05/07 07:28:37;;;;;;;13.97;12.77;;;14.30;99.90;;;;;;4904068;29;20830;-85
2022/05/07 07:31:05;;;;;;;12.83;11.60;;;14.30;99.90;;;;;;4901729;29;20484;-86
2022/05/07 07:33:31;;;;;;;15.07;11.90;;;14.40;99.90;;;;;;4903861;29;20460;-86
2022/05/07 07:35:58;;;;;;;12.43;11.20;;;14.50;99.90;;;;;;4902517;29;20989;-86
2022/05/07 07:38:26;;;;;;;11.77;10.67;;;14.50;99.90;;;;;;4885670;29;20467;-87
2022/05/07 07:40:53;;;;;;;13.10;9.80;;;14.60;99.90;;;;;;4888651;29;20861;-85
2022/05/07 07:43:21;;;;;;;11.97;10.87;;;14.80;99.90;;;;;;4904744;29;20488;-86
2022/05/07 07:48:33;;;;;;;14.23;12.83;;;14.80;99.90;;;;;;4891713;29;20501;-86
2022/05/07 07:51:00;;;;;;;12.70;11.60;;;15.00;99.90;;;;;;4886351;29;20484;-85
2022/05/07 07:53:27;;;;;;;13.30;12.10;;;15.30;99.90;;;;;;4884021;29;20465;-85
2022/05/07 07:55:54;;;;;;;12.53;11.53;;;15.20;99.90;;;;;;4883376;29;20987;-85
2022/05/07 07:58:23;;;;;;;14.60;13.40;;;15.20;99.90;;;;;;4882525;29;20465;-85
2022/05/07 08:00:50;;;;;;;12.90;11.57;;;15.40;99.90;;;;;;4882808;29;20494;-85
2022/05/07 08:03:19;;;;;;;13.03;11.90;;;15.60;99.90;;;;;;4882720;29;20469;-86
2022/05/07 08:05:48;;;;;;;12.97;11.77;;;15.70;99.90;;;;;;4881910;29;20449;-85
2022/05/07 08:13:50;;;;;;;12.97;11.87;;;16.20;99.90;;;;;;4901661;29;20537;-85
2022/05/07 08:16:18;;;;;;;14.47;12.77;;;16.00;99.90;;;;;;4883996;29;20982;-85
2022/05/07 08:18:45;;;;;;;13.43;12.23;;;16.00;99.90;;;;;;4881369;29;20461;-85
2022/05/07 08:21:12;;;;;;;12.07;11.10;;;16.20;99.90;;;;;;4897059;29;20491;-85
2022/05/07 08:23:40;;;;;;;14.90;13.40;;;16.40;99.90;;;;;;4900895;29;20455;-85
2022/05/07 08:26:09;;;;;;;12.97;11.77;;;16.60;99.90;;;;;;4887570;29;20814;-85
2022/05/07 08:28:37;;;;;;;13.73;12.40;;;16.70;99.90;;;;;;4897317;29;20475;-85
2022/05/07 08:31:05;;;;;;;14.80;12.60;;;16.90;99.90;;;;;;4900580;29;20473;-85
2022/05/07 08:33:33;;;;;;;12.47;11.33;;;16.90;99.90;;;;;;4900891;29;20463;-85
2022/05/07 08:36:00;;;;;;;13.90;12.60;;;17.00;99.90;;;;;;4899998;29;20462;-85
2022/05/07 08:38:27;;;;;;;12.30;11.17;;;17.10;99.90;;;;;;4900597;29;20457;-85
2022/05/07 08:40:54;;;;;;;13.03;11.93;;;17.30;99.90;;;;;;4900532;29;20587;-85
2022/05/07 08:43:21;;;;;;;11.97;10.97;;;17.40;99.90;;;;;;4900414;29;20947;-86
2022/05/07 08:45:48;;;;;;;13.53;11.57;;;17.60;99.90;;;;;;4900054;29;20466;-84
2022/05/07 08:48:16;;;;;;;13.90;12.90;;;17.70;99.40;;;;;;4900369;29;20472;-85
2022/05/07 08:50:44;;;;;;;11.77;10.77;;;17.80;98.50;;;;;;4901511;29;20482;-86
2022/05/07 08:53:11;;;;;;;13.17;12.07;;;17.90;98.70;;;;;;4887139;29;20470;-85
2022/05/07 08:55:37;;;;;;;11.80;10.80;;;18.00;98.40;;;;;;4886000;29;20470;-85
2022/05/07 08:58:04;;;;;;;12.83;11.53;;;18.20;98.10;;;;;;4886315;29;20462;-86
2022/05/07 09:00:33;;;;;;;11.50;10.60;;;18.50;98.10;;;;;;4879295;29;20467;-86
2022/05/07 09:03:01;;;;;;;11.60;10.60;;;18.60;96.60;;;;;;4879771;29;20509;-86
2022/05/07 09:05:38;;;;;;;14.47;11.60;;;18.70;96.70;;;;;;4879955;29;20510;-86
2022/05/07 09:08:06;;;;;;;9.50;8.70;;;18.80;95.60;;;;;;4880191;29;20455;-87
2022/05/07 09:10:34;;;;;;;11.70;10.73;;;19.00;95.00;;;;;;4890969;29;20483;-86
2022/05/07 09:13:10;;;;;;;8.40;7.50;;;19.10;95.10;;;;;;4897715;29;20824;-85
2022/05/07 09:15:37;;;;;;;9.97;9.00;;;19.10;93.60;;;;;;4897598;29;20542;-86
2022/05/07 09:18:14;;;;;;;7.73;7.13;;;19.00;92.80;;;;;;4898039;29;20463;-86
2022/05/07 09:20:42;;;;;;;8.53;7.80;;;19.20;92.50;;;;;;4896435;29;20478;-87
2022/05/07 09:23:11;;;;;;;10.30;9.20;;;19.40;90.70;;;;;;4897852;29;20456;-87
2022/05/07 09:25:45;;;;;;;7.80;7.00;;;19.60;90.90;;;;;;4886648;29;20468;-87
2022/05/07 09:28:12;;;;;;;7.83;7.30;;;19.80;91.60;;;;;;4891408;29;20960;-87
2022/05/07 09:30:42;;;;;;;6.77;6.23;;;19.80;92.70;;;;;;4896364;29;20490;-86
2022/05/07 09:33:09;;;;;;;6.80;6.37;;;19.90;91.50;;;;;;4897632;29;20455;-86
2022/05/07 09:35:50;;;;;;;9.30;8.50;;;20.10;88.00;;;;;;4900193;29;20459;-86
2022/05/07 09:38:24;;;;;;;6.37;5.83;;;19.70;88.10;;;;;;4886973;29;20464;-84
2022/05/07 09:40:51;;;;;;;6.00;5.37;;;19.30;85.40;;;;;;4892667;29;20482;-85
2022/05/07 09:43:18;;;;;;;6.97;6.57;;;19.40;90.20;;;;;;4901418;29;20888;-87
2022/05/07 09:45:46;;;;;;;6.90;6.17;;;19.60;89.30;;;;;;4900807;29;20447;-86
2022/05/07 09:48:12;;;;;;;6.00;5.50;;;19.80;87.60;;;;;;4888038;29;20457;-86
2022/05/07 09:50:45;;;;;;;6.40;5.17;;;20.00;86.80;;;;;;4891463;29;20479;-86
2022/05/07 09:58:46;;;;;;;5.47;4.90;;;20.70;85.00;;;;;;4894239;29;20962;-83
2022/05/07 10:01:34;;;;;;;4.93;4.53;;;21.00;84.30;;;;;;4890461;29;20500;-86
2022/05/07 10:04:21;;;;;;;7.03;5.70;;;21.10;81.10;;;;;;4902721;29;20471;-86
2022/05/07 10:07:14;;;;;;;4.60;4.20;;;20.90;76.50;;;;;;4885458;29;20461;-85
2022/05/07 10:09:50;;;;;;;5.80;5.40;;;20.30;77.50;;;;;;4890582;29;20468;-86
2022/05/07 10:12:21;;;;;;;5.43;5.00;;;20.30;78.40;;;;;;4885235;29;20456;-86
2022/05/07 10:14:57;;;;;;;5.00;4.53;;;20.20;78.60;;;;;;4884007;29;20461;-86
2022/05/07 10:17:24;;;;;;;3.10;2.73;;;20.30;78.50;;;;;;4882362;29;20464;-86
2022/05/07 10:19:51;;;;;;;3.13;1.90;;;20.40;73.50;;;;;;4884481;29;20480;-86
2022/05/07 10:22:21;;;;;;;2.90;2.57;;;20.60;72.50;;;;;;4887590;29;20492;-87
2022/05/07 10:24:49;;;;;;;3.83;3.53;;;20.90;73.70;;;;;;4889064;29;21146;-87
2022/05/07 10:27:30;;;;;;;3.83;3.53;;;21.10;71.60;;;;;;4888584;29;20492;-86
2022/05/07 10:30:04;;;;;;;4.00;2.87;;;20.60;71.60;;;;;;4889315;29;20477;-86
2022/05/07 10:32:31;;;;;;;3.60;3.40;;;20.50;72.00;;;;;;4890522;29;20462;-86
2022/05/07 10:34:58;;;;;;;3.40;3.20;;;20.30;71.90;;;;;;4889765;29;20454;-86
2022/05/07 10:37:25;;;;;;;4.27;3.87;;;20.40;73.40;;;;;;4889738;29;21005;-83
2022/05/07 10:39:53;;;;;;;3.77;3.47;;;20.40;71.60;;;;;;4906048;29;20477;-86
2022/05/07 10:42:21;;;;;;;3.27;2.97;;;20.50;71.90;;;;;;4888748;29;20492;-87
2022/05/07 10:44:50;;;;;;;3.63;3.40;;;20.50;69.00;;;;;;4886449;29;20461;-84
2022/05/07 10:47:19;;;;;;;4.53;3.67;;;20.50;70.40;;;;;;4903084;29;20460;-86
2022/05/07 10:49:53;;;;;;;3.53;3.33;;;20.60;70.30;;;;;;4894347;29;20485;-86
2022/05/07 10:52:33;;;;;;;3.97;3.70;;;20.80;71.80;;;;;;4894059;29;20443;-87
2022/05/07 10:55:08;;;;;;;4.37;4.07;;;21.10;74.60;;;;;;4909148;29;20806;-83
2022/05/07 10:57:45;;;;;;;3.90;3.70;;;21.50;73.20;;;;;;4896390;29;20465;-86
2022/05/07 11:00:17;;;;;;;3.03;2.90;;;21.60;68.70;;;;;;4887863;29;20485;-82
2022/05/07 11:02:45;;;;;;;3.70;3.50;;;21.90;70.10;;;;;;4904207;29;20500;-84
2022/05/07 11:05:12;;;;;;;4.43;4.10;;;22.00;67.00;;;;;;4907849;29;20461;-85
2022/05/07 11:07:39;;;;;;;4.63;3.50;;;21.90;68.60;;;;;;4890293;29;20460;-84
2022/05/07 11:10:07;;;;;;;4.10;3.80;;;21.90;66.20;;;;;;4896431;29;20483;-84
2022/05/07 11:12:35;;;;;;;3.63;3.33;;;21.90;66.90;;;;;;4903544;29;20819;-85
2022/05/07 11:15:03;;;;;;;4.60;4.20;;;22.10;68.30;;;;;;4887045;29;20461;-84
2022/05/07 11:17:32;;;;;;;3.97;3.73;;;22.20;68.30;;;;;;4888027;29;20463;-85
2022/05/07 11:20:00;;;;;;;4.37;4.07;;;22.20;66.10;;;;;;4884357;29;20483;-85
2022/05/07 11:22:30;;;;;;;3.90;3.70;;;22.40;66.40;;;;;;4887457;29;20498;-85
2022/05/07 11:24:58;;;;;;;4.10;3.80;;;22.50;64.40;;;;;;4891942;29;20490;-85
2022/05/07 11:27:29;;;;;;;6.50;4.50;;;22.60;67.10;;;;;;4907054;29;20518;-85
2022/05/07 11:29:57;;;;;;;4.70;4.40;;;22.40;67.00;;;;;;4889411;29;20494;-85
2022/05/07 11:32:24;;;;;;;5.10;4.70;;;22.40;66.50;;;;;;4889657;29;20458;-84
2022/05/07 11:34:57;;;;;;;4.30;4.00;;;22.20;67.50;;;;;;4886000;29;20463;-84
2022/05/07 11:37:24;;;;;;;5.33;4.87;;;22.20;69.00;;;;;;4893334;29;20825;-85
2022/05/07 11:39:53;;;;;;;4.17;3.87;;;22.00;68.80;;;;;;4896911;29;20492;-85
2022/05/07 11:42:30;;;;;;;10.63;4.90;;;22.00;69.10;;;;;;4902203;29;20489;-84
2022/05/07 11:47:52;;;;;;;4.93;4.53;;;21.80;66.90;;;;;;4906245;29;20458;-85
2022/05/07 11:50:22;;;;;;;4.17;3.87;;;21.60;67.00;;;;;;4898040;29;20484;-85
2022/05/07 11:52:49;;;;;;;4.37;4.00;;;22.20;68.20;;;;;;4896358;29;20450;-84
2022/05/07 11:55:18;;;;;;;3.17;2.97;;;23.00;69.40;;;;;;4903887;29;20487;-85
2022/05/07 11:57:47;;;;;;;3.67;3.43;;;23.70;65.30;;;;;;4904818;29;20970;-85
2022/05/07 12:00:16;;;;;;;3.70;3.43;;;24.10;62.40;;;;;;4893641;29;20547;-86
2022/05/07 12:02:51;;;;;;;3.87;3.53;;;24.60;64.20;;;;;;4886414;29;20498;-86
2022/05/07 12:05:18;;;;;;;4.60;4.30;;;24.90;63.20;;;;;;4894916;29;20466;-85
2022/05/07 12:07:49;;;;;;;3.70;3.50;;;24.80;59.00;;;;;;4903409;29;20463;-86
2022/05/07 12:10:17;;;;;;;4.23;3.90;;;24.80;61.10;;;;;;4900008;29;20480;-85
2022/05/07 12:12:50;;;;;;;3.90;3.60;;;24.70;57.10;;;;;;4905980;29;20470;-86
2022/05/07 12:17:51;;;;;;;3.13;2.93;;;24.20;57.60;;;;;;4890469;29;20802;-86
2022/05/07 12:18:05;;;;;;;3.40;3.20;;;23.90;58.10;;;;;;4882640;29;20513;-85
2022/05/07 12:20:32;;;;;;;4.07;3.77;;;23.50;60.50;;;;;;4894189;29;20566;-86
2022/05/07 12:31:13;;;;;;;3.40;3.10;;;24.60;55.80;;;;;;4883185;29;20464;-86
2022/05/07 12:33:40;;;;;;;3.23;2.93;;;24.60;54.80;;;;;;4885832;29;20461;-86
2022/05/07 12:36:07;;;;;;;2.97;2.77;;;24.50;56.00;;;;;;4900567;29;20460;-88
2022/05/07 12:38:35;;;;;;;10.03;3.67;;;24.40;54.40;;;;;;4904928;29;20470;-84
2022/05/07 12:47:23;;;;;;;3.87;3.57;;;26.80;54.80;;;;;;4880276;29;20464;-85
2022/05/07 12:49:51;;;;;;;2.90;2.70;;;27.80;52.40;;;;;;4883414;29;20482;-85
2022/05/07 12:52:18;;;;;;;3.33;2.90;;;28.40;48.30;;;;;;4881045;29;20519;-86
2022/05/07 12:54:46;;;;;;;2.13;2.03;;;28.20;46.20;;;;;;4883320;29;20518;-86
2022/05/07 12:57:13;;;;;;;3.87;2.40;;;28.20;46.20;;;;;;4879142;29;20534;-86
2022/05/07 12:59:40;;;;;;;2.50;2.40;;;28.60;46.40;;;;;;4879872;29;20476;-83
2022/05/07 13:02:08;;;;;;;2.40;2.20;;;29.60;47.10;;;;;;4879030;29;20463;-84
2022/05/07 13:04:35;;;;;;;3.37;3.17;;;30.60;46.20;;;;;;4878947;29;20468;-83
2022/05/07 13:07:02;;;;;;;2.97;2.77;;;30.50;43.50;;;;;;4880326;29;20453;-83
2022/05/07 13:09:29;;;;;;;3.20;2.90;;;29.90;43.70;;;;;;4879111;29;20455;-86
2022/05/07 13:11:57;;;;;;;3.50;3.27;;;29.20;44.10;;;;;;4878820;29;20459;-87
2022/05/07 13:14:24;;;;;;;3.20;3.00;;;27.20;45.00;;;;;;4887755;29;20464;-86
2022/05/07 13:16:51;;;;;;;2.87;2.67;;;26.50;46.50;;;;;;4879667;29;20876;-86
2022/05/07 13:19:18;;;;;;;3.83;3.00;;;26.20;48.70;;;;;;4880639;29;20467;-86
2022/05/07 13:21:46;;;;;;;4.50;3.10;;;26.20;49.10;;;;;;4882284;29;20468;-84
2022/05/07 13:24:14;;;;;;;3.70;3.40;;;26.30;49.50;;;;;;4880122;29;20493;-85
2022/05/07 13:26:41;;;;;;;2.70;2.50;;;26.30;47.30;;;;;;4898097;29;20459;-85
2022/05/07 13:29:09;;;;;;;2.80;2.60;;;26.70;48.30;;;;;;4897698;29;20893;-86
2022/05/07 13:31:37;;;;;;;3.13;3.00;;;26.90;46.80;;;;;;4879370;29;20983;-86
2022/05/07 13:34:04;;;;;;;3.47;3.17;;;26.80;45.90;;;;;;4879975;29;20987;-85
2022/05/07 13:36:31;;;;;;;3.87;3.47;;;27.10;46.20;;;;;;4881169;29;20462;-85
2022/05/07 13:38:58;;;;;;;2.73;2.53;;;27.30;47.50;;;;;;4880435;29;20452;-85
2022/05/07 13:41:28;;;;;;;3.37;3.07;;;27.10;47.50;;;;;;4895091;29;20486;-86
2022/05/07 13:43:55;;;;;;;3.40;3.10;;;26.90;46.50;;;;;;4899863;29;20881;-84